MET'MAP v2.0
soon released !

Expected late october,
this new version will be
more efficient, smarter,
and hosted on a brand new
server x3 powerfull...
...and still free !


Not compatible ?
Try the mobile version !

LOG IN : | Subscribe | Disclaimer | Who is Orbifly ? |
ICAO code :
Legend : VFR Marginal VFR IFR Intensive IFR Very Intensive IFR
Visi :
Ceiling :
>= 8 km
>= 3000ft
5 to 8 km
1000 to 3000 ft
1500m to 5 km
500 to 1000 ft
800 to 1500m
200 to 500 ft
< 800m
< 200 ft

METAR - EDDE Erfurt - 05 Apr 2020 13:12 UTC
Data Sources :     NOAA   


- Airport Elevation : 1036 ft
- IATA code : ERF
- No reported NOTAMs.


EDDE - Erfurt

Latest METAR recorded : 2015/08/11 07:50 EDDE 110750Z 34001KT CAVOK 22/16 Q1017 NOSIG
TAF TAF EDDE
Valid from the 05 at 06:00 until the 06 at 06:00 UTC


050500Z 0506/0606 VRB03KT CAVOK
BECMG 0508/0511 10010KT
BECMG 0517/0520 12005KT
BECMG 0520/0522 18007KT

Source NOAA


MET'MAP, your aeronautical weather chart ! - Copyright ORBIFLY December 2007

Programming & Development : Alexandra Zaïnal
Co-Developer : Marc-Olivier Méhu
Technical & hardware support : Manuel Goepfert
Concept & Financing : Baudouin d'Aumeries